createdAt,value
2023-01-08T07:18:19.373Z,2.61
2023-01-08T07:23:21.029Z,2.69
2023-01-08T07:28:22.659Z,2.94
2023-01-08T07:33:24.340Z,2.82
2023-01-08T07:38:26.043Z,2.96
2023-01-08T07:43:30.143Z,2.98
2023-01-08T07:48:32.002Z,2.95
2023-01-08T07:53:34.433Z,2.83
2023-01-08T07:58:36.578Z,3.03
2023-01-08T08:03:39.531Z,3.08
2023-01-08T08:08:42.283Z,3.13
2023-01-08T08:13:45.222Z,3.13
2023-01-08T08:18:46.775Z,3.05
2023-01-08T08:23:48.467Z,3.09
2023-01-08T08:28:50.550Z,3.14
2023-01-08T08:33:52.155Z,3.02
2023-01-08T08:38:53.730Z,3.08
2023-01-08T08:43:55.300Z,2.87
2023-01-08T08:48:57.287Z,3.08
2023-01-08T08:53:58.975Z,2.99
2023-01-08T08:59:00.882Z,3.18
2023-01-08T09:04:02.642Z,3.02
2023-01-08T09:09:04.844Z,3.18
2023-01-08T09:14:06.507Z,3.06
2023-01-08T09:19:09.907Z,3.25
2023-01-08T09:24:11.717Z,3.22
2023-01-08T09:29:13.371Z,3.08
2023-01-08T09:34:15.211Z,3.19
2023-01-08T09:39:16.842Z,3.41
2023-01-08T09:44:22.868Z,3.21
2023-01-08T09:49:44.287Z,3.48
2023-01-08T09:54:45.885Z,3.24
2023-01-08T09:59:48.996Z,3.12
2023-01-08T10:05:00.790Z,3.00
2023-01-08T10:10:02.440Z,3.09
2023-01-08T10:15:07.944Z,3.23
2023-01-08T10:20:16.984Z,3.46
2023-01-08T10:25:22.225Z,3.29
2023-01-08T10:30:28.933Z,3.17
2023-01-08T10:35:55.895Z,3.13
2023-01-08T10:41:00.189Z,3.09
2023-01-08T10:46:15.854Z,3.18
2023-01-08T10:51:21.215Z,3.27
2023-01-08T10:56:25.520Z,3.42
2023-01-08T11:01:29.834Z,3.50
2023-01-08T11:06:47.240Z,3.55
2023-01-08T11:11:49.757Z,3.32
2023-01-08T11:16:51.587Z,3.67
2023-01-08T11:22:02.487Z,3.66
2023-01-08T11:27:12.992Z,3.53
2023-01-08T11:32:51.726Z,3.51
2023-01-08T11:37:58.334Z,3.64
2023-01-08T11:43:24.559Z,3.71
2023-01-08T11:48:31.781Z,3.72
2023-01-08T11:54:06.580Z,3.73
2023-01-08T11:59:23.411Z,3.85
2023-01-08T12:04:37.074Z,3.83
2023-01-08T12:09:49.693Z,3.70
2023-01-08T12:15:00.607Z,3.93
2023-01-08T12:20:38.201Z,4.00
2023-01-08T12:26:10.494Z,4.00
2023-01-08T12:31:51.481Z,3.84
2023-01-08T12:37:07.356Z,3.75
2023-01-08T12:42:13.865Z,3.80
2023-01-08T12:47:22.250Z,3.72
2023-01-08T12:52:51.090Z,3.79
2023-01-08T12:58:22.933Z,4.01
2023-01-08T13:03:28.841Z,3.85
2023-01-08T13:08:35.036Z,3.82
2023-01-08T13:13:41.804Z,4.01
2023-01-08T13:18:54.283Z,3.92
2023-01-08T13:24:21.202Z,3.78
2023-01-08T13:29:41.633Z,4.07
2023-01-08T13:34:44.063Z,4.11
2023-01-08T13:39:45.757Z,3.83
2023-01-08T13:44:59.971Z,3.94
2023-01-08T13:50:06.362Z,3.76
2023-01-08T13:55:21.561Z,4.07
2023-01-08T14:00:31.127Z,4.14
2023-01-08T14:05:36.984Z,3.99
2023-01-08T14:10:38.719Z,3.97
2023-01-08T14:15:40.387Z,3.83
2023-01-08T14:20:44.847Z,3.97
2023-01-08T14:25:50.532Z,3.93
2023-01-08T14:30:57.059Z,3.81
2023-01-08T14:36:00.897Z,4.15
2023-01-08T14:41:07.814Z,3.93
2023-01-08T14:46:29.016Z,3.91
2023-01-08T14:51:32.129Z,3.83
2023-01-08T14:56:36.136Z,3.76
2023-01-08T15:01:38.017Z,3.60
2023-01-08T15:06:39.808Z,3.93
2023-01-08T15:11:56.158Z,3.93
2023-01-08T15:17:00.182Z,3.91
2023-01-08T15:22:02.519Z,3.84
2023-01-08T15:27:10.190Z,3.88
2023-01-08T15:32:14.680Z,3.80
2023-01-08T15:37:16.662Z,3.97
2023-01-08T15:42:43.622Z,3.91
2023-01-08T15:47:45.208Z,3.73
2023-01-08T15:52:46.902Z,3.72
2023-01-08T15:57:49.273Z,3.80
2023-01-08T16:02:52.681Z,3.78
2023-01-08T16:07:54.365Z,3.66
2023-01-08T16:12:56.235Z,3.80
2023-01-08T16:17:59.228Z,3.70
2023-01-08T16:23:00.822Z,3.63
2023-01-08T16:28:03.247Z,3.69
2023-01-08T16:33:04.830Z,3.90
2023-01-08T16:38:06.563Z,3.67
2023-01-08T16:43:11.535Z,3.81
2023-01-08T16:48:13.398Z,3.77
2023-01-08T16:53:17.432Z,3.80
2023-01-08T16:58:19.095Z,3.81
2023-01-08T17:03:21.235Z,3.85
2023-01-08T17:08:23.051Z,3.80
2023-01-08T17:13:24.633Z,3.81
2023-01-08T17:18:26.186Z,3.73
2023-01-08T17:23:28.911Z,3.77
2023-01-08T17:28:31.717Z,3.88
2023-01-08T17:33:37.745Z,3.76
2023-01-08T17:38:39.950Z,3.79
2023-01-08T17:43:41.539Z,3.80
2023-01-08T17:48:45.064Z,3.75
2023-01-08T17:53:47.341Z,3.75
2023-01-08T17:58:50.280Z,3.65
2023-01-08T18:03:52.433Z,3.81
2023-01-08T18:08:54.212Z,3.70
2023-01-08T18:13:57.622Z,3.84
2023-01-08T18:19:00.282Z,3.87
2023-01-08T18:24:02.002Z,3.68
2023-01-08T18:29:03.861Z,3.72
2023-01-08T18:34:05.646Z,3.63
2023-01-08T18:39:07.330Z,3.55
2023-01-08T18:44:10.351Z,3.54
2023-01-08T18:49:11.972Z,3.54
2023-01-08T18:54:13.599Z,3.54
2023-01-08T18:59:15.330Z,3.40
2023-01-08T19:04:18.736Z,3.21
2023-01-08T19:09:20.450Z,3.26
2023-01-08T19:14:22.077Z,3.29
2023-01-08T19:19:23.744Z,3.33
2023-01-08T19:24:25.582Z,3.30
2023-01-08T19:29:27.200Z,3.39
2023-01-08T19:34:28.804Z,3.32
2023-01-08T19:39:30.667Z,3.33
2023-01-08T19:44:32.750Z,3.16
2023-01-08T19:49:34.815Z,3.18
2023-01-08T19:54:37.801Z,3.26
2023-01-08T19:59:39.464Z,3.27
2023-01-08T20:04:44.316Z,3.19
2023-01-08T20:09:45.914Z,3.14
2023-01-08T20:14:48.390Z,3.07
2023-01-08T20:19:50.267Z,3.10
2023-01-08T20:24:53.256Z,3.26
2023-01-08T20:29:54.874Z,3.12
2023-01-08T20:34:56.552Z,3.24
2023-01-08T20:39:58.233Z,3.29
2023-01-08T20:44:59.879Z,3.22
2023-01-08T20:50:03.314Z,3.20
